createdAt,value
2022-10-28T00:01:17.232Z,3.13
2022-10-28T00:03:45.980Z,2.70
2022-10-28T00:06:14.953Z,3.00
2022-10-28T00:08:43.015Z,2.57
2022-10-28T00:11:14.246Z,2.70
2022-10-28T00:13:43.069Z,2.73
2022-10-28T00:16:11.938Z,2.57
2022-10-28T00:18:40.503Z,2.67
2022-10-28T00:21:09.963Z,3.20
2022-10-28T00:23:38.045Z,2.87
2022-10-28T00:26:10.504Z,2.70
2022-10-28T00:28:43.071Z,3.40
2022-10-28T00:31:11.802Z,3.03
2022-10-28T00:33:39.871Z,2.63
2022-10-28T00:36:12.024Z,2.80
2022-10-28T00:38:43.340Z,3.00
2022-10-28T00:41:11.716Z,2.80
2022-10-28T00:43:42.568Z,3.10
2022-10-28T00:46:18.101Z,3.23
2022-10-28T00:48:47.484Z,2.90
2022-10-28T00:51:15.800Z,2.77
2022-10-28T00:53:44.173Z,3.10
2022-10-28T00:56:12.316Z,2.63
2022-10-28T00:58:44.277Z,2.70
2022-10-28T01:01:12.287Z,2.83
2022-10-28T01:03:40.406Z,2.97
2022-10-28T01:06:08.925Z,2.97
2022-10-28T01:08:37.322Z,3.10
2022-10-28T01:11:14.082Z,2.87
2022-10-28T01:13:45.914Z,2.83
2022-10-28T01:16:19.609Z,3.40
2022-10-28T01:18:51.288Z,3.03
2022-10-28T01:21:24.353Z,3.17
2022-10-28T01:24:06.664Z,3.30
2022-10-28T01:26:52.888Z,2.90
2022-10-28T01:29:41.969Z,3.67
2022-10-28T01:32:12.334Z,2.87
2022-10-28T01:34:42.069Z,2.70
2022-10-28T01:37:13.116Z,2.83
2022-10-28T01:39:45.504Z,2.90
2022-10-28T01:42:18.119Z,3.30
2022-10-28T01:44:49.400Z,2.97
2022-10-28T01:47:19.930Z,3.10
2022-10-28T01:49:49.237Z,3.80
2022-10-28T01:52:18.860Z,3.17
2022-10-28T01:54:49.122Z,3.10
2022-10-28T01:57:17.200Z,2.67
2022-10-28T01:59:45.565Z,3.20
2022-10-28T02:02:13.620Z,3.03
2022-10-28T02:04:43.052Z,2.83
2022-10-28T02:07:11.410Z,2.97
2022-10-28T02:09:43.029Z,3.20
2022-10-28T02:12:32.916Z,2.90
2022-10-28T02:15:27.459Z,3.30
2022-10-28T02:18:10.785Z,3.03
2022-10-28T02:20:43.079Z,3.17
2022-10-28T02:23:17.772Z,2.93
2022-10-28T02:25:47.349Z,2.90
2022-10-28T02:28:18.133Z,2.77
2022-10-28T02:30:46.903Z,3.10
2022-10-28T02:33:18.005Z,3.30
2022-10-28T02:35:49.925Z,2.97
2022-10-28T02:38:19.816Z,3.00
2022-10-28T02:43:24.339Z,2.90
2022-10-28T02:45:55.467Z,3.50
2022-10-28T02:48:24.142Z,2.73
2022-10-28T02:50:55.960Z,3.00
2022-10-28T02:55:56.011Z,2.97
2022-10-28T02:58:24.089Z,3.30
2022-10-28T03:00:55.049Z,2.90
2022-10-28T03:03:23.470Z,2.83
2022-10-28T03:05:52.876Z,3.10
2022-10-28T03:08:21.247Z,2.70
2022-10-28T03:10:49.607Z,3.60
2022-10-28T03:13:17.677Z,3.23
2022-10-28T03:15:46.039Z,3.10
2022-10-28T03:18:14.456Z,2.90
2022-10-28T03:20:42.535Z,3.30
2022-10-28T03:23:12.316Z,2.57
2022-10-28T03:25:40.678Z,3.13
2022-10-28T03:28:09.052Z,2.70
2022-10-28T03:30:43.947Z,2.70
2022-10-28T03:33:12.309Z,3.00
2022-10-28T03:35:40.667Z,2.97
2022-10-28T03:38:14.864Z,4.10
2022-10-28T03:40:43.017Z,2.90
2022-10-28T03:43:11.427Z,3.03
2022-10-28T03:45:39.469Z,3.17
2022-10-28T03:48:08.002Z,3.00
2022-10-28T03:50:36.380Z,3.60
2022-10-28T03:53:04.772Z,2.90
2022-10-28T03:55:34.553Z,3.20
2022-10-28T03:58:02.728Z,3.07
2022-10-28T04:00:31.157Z,3.10
2022-10-28T04:02:59.199Z,3.53
2022-10-28T04:05:27.558Z,2.90
2022-10-28T04:07:55.938Z,3.33
2022-10-28T04:10:24.321Z,3.10
2022-10-28T04:12:54.287Z,2.83
2022-10-28T04:15:22.867Z,2.53
2022-10-28T04:17:51.225Z,3.13
2022-10-28T04:20:19.666Z,3.33
2022-10-28T04:22:48.071Z,3.03
2022-10-28T04:25:16.613Z,2.70
2022-10-28T04:27:45.557Z,2.90
2022-10-28T04:30:15.465Z,2.80
2022-10-28T04:32:43.945Z,2.83
2022-10-28T04:35:12.670Z,3.00
2022-10-28T04:37:41.133Z,3.20
2022-10-28T04:40:13.724Z,3.20
2022-10-28T04:42:42.103Z,2.93
2022-10-28T04:45:10.800Z,3.00
2022-10-28T04:47:40.524Z,2.90
2022-10-28T04:50:13.098Z,3.40
2022-10-28T04:52:41.484Z,3.10
2022-10-28T04:55:10.298Z,3.40
2022-10-28T04:57:38.640Z,3.17
2022-10-28T05:00:07.710Z,3.17
2022-10-28T05:02:36.072Z,3.13
2022-10-28T05:05:06.053Z,3.10
2022-10-28T05:07:34.446Z,3.00
2022-10-28T05:10:02.831Z,2.87
2022-10-28T05:12:30.867Z,2.80
2022-10-28T05:14:58.942Z,2.80
2022-10-28T05:17:31.113Z,2.77
2022-10-28T05:20:10.329Z,3.33
2022-10-28T05:22:38.433Z,3.30
2022-10-28T05:25:07.126Z,3.10
2022-10-28T05:27:35.169Z,2.93
2022-10-28T05:30:03.549Z,3.10
2022-10-28T05:32:31.621Z,2.80
2022-10-28T05:34:59.667Z,2.80
2022-10-28T05:37:29.085Z,2.67
2022-10-28T05:40:01.459Z,3.33
2022-10-28T05:42:31.430Z,2.90
2022-10-28T05:44:59.792Z,2.77
2022-10-28T05:47:28.168Z,3.20
2022-10-28T05:50:01.138Z,3.07
2022-10-28T05:52:30.533Z,2.90
2022-10-28T05:54:58.919Z,3.30
2022-10-28T05:57:31.155Z,3.03
2022-10-28T05:59:59.256Z,3.20
2022-10-28T06:02:27.322Z,2.60
2022-10-28T06:04:55.413Z,2.70
2022-10-28T06:07:24.619Z,3.27
2022-10-28T06:09:54.094Z,3.43
2022-10-28T06:12:20.980Z,3.33
2022-10-28T06:14:49.099Z,3.23
2022-10-28T06:17:17.184Z,3.50
2022-10-28T06:19:45.313Z,3.33
2022-10-28T06:22:13.382Z,3.17
2022-10-28T06:24:41.745Z,3.07
2022-10-28T06:27:11.527Z,3.20
2022-10-28T06:29:39.900Z,3.27
2022-10-28T06:32:09.728Z,2.97
2022-10-28T06:34:38.472Z,3.00
2022-10-28T06:37:06.854Z,3.10
2022-10-28T06:39:36.631Z,3.00
2022-10-28T06:42:04.840Z,2.97
2022-10-28T06:44:34.251Z,3.30
2022-10-28T06:47:04.143Z,3.03
2022-10-28T06:49:32.216Z,3.00
2022-10-28T06:52:00.588Z,3.23
2022-10-28T06:54:28.653Z,3.30
2022-10-28T06:56:57.031Z,2.90
2022-10-28T06:59:25.194Z,3.30
2022-10-28T07:01:55.153Z,3.17
2022-10-28T07:04:23.581Z,3.00
2022-10-28T07:06:52.173Z,2.83
2022-10-28T07:09:20.586Z,3.20
2022-10-28T07:11:54.833Z,4.33
2022-10-28T07:14:25.557Z,3.80
2022-10-28T07:16:56.936Z,2.83
2022-10-28T07:19:25.087Z,3.20
2022-10-28T07:21:53.146Z,3.10
2022-10-28T07:24:25.562Z,3.20
2022-10-28T07:26:55.572Z,3.00
2022-10-28T07:29:26.229Z,2.90
2022-10-28T07:31:56.971Z,2.73
2022-10-28T07:34:27.225Z,3.10
2022-10-28T07:37:01.309Z,3.87
2022-10-28T07:39:30.173Z,3.50
2022-10-28T07:41:58.613Z,3.00
2022-10-28T07:44:26.987Z,3.20
2022-10-28T07:46:58.192Z,3.10
2022-10-28T07:49:27.114Z,3.50
2022-10-28T07:51:55.505Z,2.90
2022-10-28T07:54:23.892Z,4.10
2022-10-28T07:56:52.287Z,2.90
2022-10-28T07:59:25.864Z,3.07
2022-10-28T08:01:56.859Z,3.23
2022-10-28T08:04:25.224Z,2.93
2022-10-28T08:09:22.887Z,2.83
2022-10-28T08:11:50.946Z,3.50
2022-10-28T08:14:19.313Z,3.20
2022-10-28T08:16:47.545Z,3.27
2022-10-28T08:19:17.320Z,3.77
2022-10-28T08:21:45.692Z,2.90
2022-10-28T08:24:13.905Z,3.00
2022-10-28T08:26:41.981Z,3.47
2022-10-28T08:29:11.890Z,3.00
2022-10-28T08:31:39.955Z,3.20
2022-10-28T08:34:08.514Z,3.20
2022-10-28T08:36:38.329Z,3.40
2022-10-28T08:39:06.751Z,2.93
2022-10-28T08:41:37.526Z,3.03
2022-10-28T08:44:21.944Z,3.33
2022-10-28T08:46:53.973Z,3.73
2022-10-28T08:49:23.139Z,3.50
2022-10-28T08:51:58.234Z,3.27
2022-10-28T08:54:27.900Z,3.50
2022-10-28T08:56:57.534Z,3.20
2022-10-28T08:59:27.413Z,2.80
2022-10-28T09:01:58.199Z,3.80
2022-10-28T09:04:28.582Z,2.77
2022-10-28T09:06:58.366Z,3.70
2022-10-28T09:09:26.761Z,3.37
2022-10-28T09:12:13.158Z,3.40
2022-10-28T09:14:49.577Z,3.30
2022-10-28T09:17:20.233Z,3.40
2022-10-28T09:19:49.791Z,3.40
2022-10-28T09:22:24.594Z,3.40
2022-10-28T09:24:55.084Z,3.50
2022-10-28T09:27:37.738Z,3.40
2022-10-28T09:30:18.403Z,3.60
2022-10-28T09:32:52.317Z,3.50
2022-10-28T09:35:32.814Z,3.23
2022-10-28T09:38:19.438Z,3.30
2022-10-28T09:40:48.381Z,3.67
2022-10-28T09:43:18.881Z,3.60
2022-10-28T09:45:50.174Z,3.00
2022-10-28T09:48:18.937Z,2.77
2022-10-28T09:50:47.005Z,3.20
2022-10-28T09:53:20.089Z,3.87
2022-10-28T09:55:48.440Z,3.50
2022-10-28T09:58:16.822Z,3.07
2022-10-28T10:00:45.198Z,3.10
2022-10-28T10:03:13.369Z,3.30
2022-10-28T10:05:42.729Z,3.50
2022-10-28T10:08:13.919Z,3.30
2022-10-28T10:10:46.852Z,3.47
2022-10-28T10:13:14.948Z,3.40
2022-10-28T10:15:45.780Z,3.13
2022-10-28T10:18:15.213Z,3.40
2022-10-28T10:20:50.730Z,3.47
2022-10-28T10:23:28.498Z,2.97
2022-10-28T10:25:59.596Z,3.40
2022-10-28T10:28:31.371Z,3.80
2022-10-28T10:31:00.023Z,3.57
2022-10-28T10:33:28.896Z,3.40
2022-10-28T10:36:00.235Z,3.07
2022-10-28T10:38:28.885Z,3.47
2022-10-28T10:40:58.639Z,4.03
2022-10-28T10:43:31.652Z,3.40
2022-10-28T10:46:04.378Z,4.40
2022-10-28T10:48:33.996Z,3.70
2022-10-28T10:51:06.302Z,3.73
2022-10-28T10:53:34.670Z,3.70
2022-10-28T10:56:04.764Z,4.17
2022-10-28T10:58:34.822Z,3.60
2022-10-28T11:01:09.605Z,3.80
2022-10-28T11:03:38.731Z,3.03
2022-10-28T11:06:24.415Z,4.13
2022-10-28T11:08:56.465Z,3.50
2022-10-28T11:11:33.000Z,3.87
2022-10-28T11:14:04.403Z,3.40
2022-10-28T11:16:48.534Z,3.00
2022-10-28T11:19:17.813Z,3.50
2022-10-28T11:22:04.860Z,3.70
2022-10-28T11:24:57.300Z,3.77
2022-10-28T11:27:32.869Z,4.23
2022-10-28T11:30:01.029Z,3.80
2022-10-28T11:32:50.141Z,2.93
2022-10-28T11:35:44.413Z,3.67
2022-10-28T11:38:19.410Z,3.97
2022-10-28T11:41:03.141Z,3.10
2022-10-28T11:43:34.089Z,3.03
2022-10-28T11:46:10.441Z,3.60
2022-10-28T11:48:45.136Z,3.27
2022-10-28T11:51:19.470Z,3.70
2022-10-28T11:54:11.906Z,3.30
2022-10-28T11:56:41.044Z,3.67
2022-10-28T11:59:36.434Z,3.93
2022-10-28T12:02:12.271Z,4.07
2022-10-28T12:04:53.879Z,3.47
2022-10-28T12:07:49.160Z,3.67
2022-10-28T12:10:35.809Z,3.57
2022-10-28T12:13:08.141Z,4.30
2022-10-28T12:15:42.060Z,3.77
2022-10-28T12:18:19.620Z,3.90
2022-10-28T12:20:49.509Z,3.37
2022-10-28T12:23:18.828Z,4.03
2022-10-28T12:25:47.687Z,3.40
2022-10-28T12:30:52.900Z,3.90
2022-10-28T12:33:26.588Z,4.00
2022-10-28T12:35:55.702Z,3.20
2022-10-28T12:38:25.249Z,3.50
2022-10-28T12:40:54.397Z,3.47
2022-10-28T12:43:25.299Z,3.63
2022-10-28T12:45:55.986Z,3.30
2022-10-28T12:48:28.433Z,4.30
2022-10-28T12:50:58.158Z,4.07
2022-10-28T12:53:29.857Z,4.23
2022-10-28T12:55:59.094Z,3.30
2022-10-28T12:58:31.086Z,4.20
2022-10-28T13:01:02.279Z,3.97
2022-10-28T13:03:30.391Z,4.10
2022-10-28T13:06:08.391Z,4.30
2022-10-28T13:08:41.277Z,4.00
2022-10-28T13:11:35.066Z,3.70
2022-10-28T13:14:03.991Z,3.60
2022-10-28T13:16:54.158Z,4.20
2022-10-28T13:19:34.414Z,3.80
2022-10-28T13:22:20.899Z,3.70
2022-10-28T13:24:51.237Z,4.13
2022-10-28T13:27:19.647Z,4.57
2022-10-28T13:29:50.743Z,4.43
2022-10-28T13:32:38.816Z,3.80
2022-10-28T13:35:14.332Z,4.17
2022-10-28T13:37:42.718Z,3.80
2022-10-28T13:40:16.076Z,4.30
2022-10-28T13:42:47.983Z,4.37
2022-10-28T13:45:48.398Z,4.17
2022-10-28T13:48:47.134Z,4.87
2022-10-28T13:51:34.295Z,3.70
2022-10-28T13:54:02.676Z,3.40
2022-10-28T13:56:47.874Z,3.60
2022-10-28T13:59:23.570Z,4.47
2022-10-28T14:02:02.239Z,4.00
2022-10-28T14:04:45.040Z,4.67
2022-10-28T14:07:21.750Z,4.47
2022-10-28T14:09:51.639Z,4.30
2022-10-28T14:12:30.402Z,4.20
2022-10-28T14:15:03.215Z,4.10
2022-10-28T14:17:34.394Z,3.80
2022-10-28T14:20:04.103Z,4.00
2022-10-28T14:22:33.159Z,3.50
2022-10-28T14:25:01.310Z,4.40
2022-10-28T14:27:31.138Z,3.77
2022-10-28T14:30:18.872Z,4.30
2022-10-28T14:33:11.102Z,3.90
2022-10-28T14:35:41.746Z,3.73
2022-10-28T14:38:43.028Z,4.30
2022-10-28T14:41:26.559Z,3.90
2022-10-28T14:44:00.153Z,4.50
2022-10-28T14:46:34.357Z,3.60
2022-10-28T14:49:02.461Z,4.30
2022-10-28T14:51:40.358Z,4.20
2022-10-28T14:54:10.015Z,4.33
2022-10-28T14:56:38.101Z,4.10
2022-10-28T14:59:15.071Z,4.27
2022-10-28T15:01:53.857Z,3.70
2022-10-28T15:04:22.335Z,4.17
2022-10-28T15:06:51.896Z,3.70
2022-10-28T15:09:23.119Z,4.33
2022-10-28T15:11:53.019Z,3.60
2022-10-28T15:14:29.980Z,4.00
2022-10-28T15:16:58.342Z,4.20
2022-10-28T15:19:27.641Z,4.47
2022-10-28T15:22:04.813Z,4.60
2022-10-28T15:24:33.210Z,4.23
2022-10-28T15:27:01.317Z,4.07
2022-10-28T15:29:29.405Z,4.50
2022-10-28T15:32:25.165Z,3.80
2022-10-28T15:34:53.327Z,3.80
2022-10-28T15:37:23.671Z,4.03
2022-10-28T15:40:06.309Z,4.63
2022-10-28T15:42:39.116Z,4.00
2022-10-28T15:45:08.139Z,3.47
2022-10-28T15:47:36.907Z,4.27
2022-10-28T15:50:21.196Z,4.37
2022-10-28T15:52:52.424Z,4.80
2022-10-28T15:58:35.702Z,4.67
2022-10-28T16:01:05.053Z,4.93
2022-10-28T16:03:42.969Z,4.57
2022-10-28T16:06:22.614Z,4.93
2022-10-28T16:09:00.510Z,5.00
2022-10-28T16:11:28.576Z,5.27
2022-10-28T16:13:56.949Z,4.67
2022-10-28T16:16:26.108Z,5.13
2022-10-28T16:18:58.495Z,5.07
2022-10-28T16:21:27.081Z,5.63
2022-10-28T16:23:58.907Z,15.33
2022-10-28T16:26:27.095Z,14.40
2022-10-28T16:28:55.160Z,9.60
2022-10-28T16:31:23.764Z,8.73
2022-10-28T16:33:51.827Z,9.50
2022-10-28T16:36:20.218Z,9.07
2022-10-28T16:38:48.558Z,10.30
2022-10-28T16:41:18.812Z,13.27
2022-10-28T16:43:47.195Z,11.10
2022-10-28T16:46:15.625Z,7.90
2022-10-28T16:48:43.990Z,9.40
2022-10-28T16:51:13.441Z,11.13
2022-10-28T16:53:46.913Z,9.80
2022-10-28T16:56:16.032Z,9.40
2022-10-28T16:58:46.847Z,10.27
2022-10-28T17:01:15.468Z,10.83
2022-10-28T17:03:43.642Z,10.70
2022-10-28T17:06:12.080Z,10.07
2022-10-28T17:09:01.730Z,11.03
2022-10-28T17:11:28.581Z,11.10
2022-10-28T17:13:58.094Z,10.27
2022-10-28T17:16:26.497Z,10.90
2022-10-28T17:18:54.877Z,10.50
2022-10-28T17:21:23.249Z,10.87
2022-10-28T17:23:51.651Z,11.93
2022-10-28T17:26:20.041Z,11.80
2022-10-28T17:28:52.319Z,10.70
2022-10-28T17:31:24.920Z,12.80
2022-10-28T17:33:54.950Z,12.23
2022-10-28T17:36:25.828Z,11.70
2022-10-28T17:38:53.927Z,12.23
2022-10-28T17:41:22.005Z,12.47
2022-10-28T17:43:53.008Z,12.87
2022-10-28T17:46:22.999Z,11.83
2022-10-28T17:48:51.364Z,11.83
2022-10-28T17:51:21.016Z,13.17
2022-10-28T17:53:49.412Z,12.60
2022-10-28T17:56:17.841Z,12.77
2022-10-28T17:58:50.067Z,14.20
2022-10-28T18:01:18.218Z,13.00
2022-10-28T18:03:49.787Z,13.27
2022-10-28T18:06:18.159Z,13.50
2022-10-28T18:08:46.577Z,13.20
2022-10-28T18:11:15.921Z,13.13
2022-10-28T18:13:45.151Z,13.33
2022-10-28T18:16:13.943Z,12.57
2022-10-28T18:18:42.872Z,13.50
2022-10-28T18:21:12.631Z,13.70
2022-10-28T18:23:41.158Z,12.50
2022-10-28T18:26:10.040Z,12.97
2022-10-28T18:28:38.428Z,12.73
2022-10-28T18:31:07.469Z,13.30
2022-10-28T18:33:35.875Z,13.50
2022-10-28T18:36:04.364Z,13.13
2022-10-28T18:38:34.479Z,13.10
2022-10-28T18:41:02.580Z,13.47
2022-10-28T18:43:30.955Z,12.70
2022-10-28T18:46:01.611Z,12.40
2022-10-28T18:48:29.994Z,12.90
2022-10-28T18:50:58.385Z,12.70
2022-10-28T18:53:26.816Z,13.27
2022-10-28T18:56:00.953Z,12.53
2022-10-28T18:58:31.829Z,13.70
2022-10-28T19:01:08.244Z,11.80
2022-10-28T19:03:36.384Z,12.27
2022-10-28T19:06:05.377Z,12.90
2022-10-28T19:08:33.760Z,14.03
2022-10-28T19:11:03.337Z,12.27
2022-10-28T19:13:33.897Z,12.43
2022-10-28T19:16:02.115Z,12.73
2022-10-28T19:18:30.337Z,13.07
2022-10-28T19:21:04.226Z,13.00
2022-10-28T19:23:32.861Z,13.90
2022-10-28T19:26:01.288Z,12.63
2022-10-28T19:28:30.712Z,13.67
2022-10-28T19:31:02.912Z,13.27
2022-10-28T19:33:31.464Z,12.67
2022-10-28T19:36:03.652Z,13.63
2022-10-28T19:38:32.656Z,13.40
2022-10-28T19:41:08.147Z,13.67
2022-10-28T19:43:37.934Z,13.43
2022-10-28T19:46:06.981Z,13.23
2022-10-28T19:48:35.469Z,12.70
2022-10-28T19:51:03.540Z,13.13
2022-10-28T19:53:31.624Z,13.50
2022-10-28T19:56:00.554Z,13.60
2022-10-28T19:58:28.866Z,12.57
2022-10-28T20:01:04.939Z,13.10
2022-10-28T20:03:35.105Z,12.77
2022-10-28T20:06:35.641Z,13.53
2022-10-28T20:09:04.790Z,13.83
2022-10-28T20:11:33.628Z,13.00
2022-10-28T20:14:03.287Z,12.50
2022-10-28T20:16:33.272Z,13.40
2022-10-28T20:19:01.669Z,13.07
2022-10-28T20:21:30.990Z,13.73
2022-10-28T20:23:59.126Z,13.03
2022-10-28T20:26:28.003Z,12.87
2022-10-28T20:28:56.436Z,13.70
2022-10-28T20:31:25.716Z,13.67
2022-10-28T20:33:56.784Z,13.30
2022-10-28T20:36:25.679Z,12.30
2022-10-28T20:38:56.881Z,13.20
2022-10-28T20:41:25.091Z,12.97
2022-10-28T20:43:53.560Z,11.80
2022-10-28T20:46:21.749Z,13.47
2022-10-28T20:48:50.130Z,12.90
2022-10-28T20:51:19.575Z,12.57
2022-10-28T20:53:47.691Z,14.30
2022-10-28T20:56:18.827Z,14.50
2022-10-28T20:58:47.207Z,12.07
2022-10-28T21:01:15.968Z,13.00
2022-10-28T21:03:44.458Z,12.10
2022-10-28T21:08:47.240Z,12.50
2022-10-28T21:11:15.904Z,13.03
2022-10-28T21:13:45.138Z,12.90
2022-10-28T21:16:13.966Z,12.03
2022-10-28T21:18:42.360Z,12.30
2022-10-28T21:21:10.775Z,12.40
2022-10-28T21:23:39.140Z,13.37
2022-10-28T21:26:09.060Z,12.17
2022-10-28T21:28:37.444Z,13.60
2022-10-28T21:31:06.540Z,13.30
2022-10-28T21:33:34.992Z,12.40
2022-10-28T21:36:03.932Z,13.47
2022-10-28T21:38:32.295Z,13.20
2022-10-28T21:41:01.348Z,12.37
2022-10-28T21:43:31.431Z,12.60
2022-10-28T21:45:59.546Z,13.17
2022-10-28T21:48:28.443Z,13.40
2022-10-28T21:50:57.179Z,13.87
2022-10-28T21:53:25.489Z,13.47
2022-10-28T21:55:55.517Z,13.13
2022-10-28T21:58:26.241Z,11.90
2022-10-28T22:00:55.989Z,12.13
2022-10-28T22:03:24.361Z,11.80
2022-10-28T22:05:52.769Z,12.37
2022-10-28T22:08:26.033Z,12.10
2022-10-28T22:10:59.973Z,12.37
2022-10-28T22:13:28.063Z,11.87
2022-10-28T22:16:01.283Z,12.83
2022-10-28T22:18:29.815Z,12.40
2022-10-28T22:20:58.196Z,11.97
2022-10-28T22:23:26.559Z,12.37
2022-10-28T22:25:54.971Z,12.80
2022-10-28T22:28:23.349Z,12.80
2022-10-28T22:30:51.737Z,11.60
2022-10-28T22:33:21.181Z,13.10
2022-10-28T22:35:57.187Z,12.20
2022-10-28T22:38:25.304Z,12.37
2022-10-28T22:41:02.804Z,11.23
2022-10-28T22:43:30.884Z,12.80
2022-10-28T22:45:59.221Z,12.30
2022-10-28T22:48:28.695Z,11.70
2022-10-28T22:50:56.913Z,12.20
2022-10-28T22:53:25.301Z,12.40
2022-10-28T22:55:53.783Z,11.40
2022-10-28T22:58:22.096Z,12.47
2022-10-28T23:00:50.609Z,12.30
2022-10-28T23:03:19.014Z,12.43
2022-10-28T23:05:48.470Z,12.10
2022-10-28T23:08:20.221Z,12.03
2022-10-28T23:10:48.592Z,11.80
2022-10-28T23:13:16.971Z,13.13
2022-10-28T23:15:45.084Z,12.30
2022-10-28T23:18:13.155Z,12.53
2022-10-28T23:20:44.016Z,12.10
2022-10-28T23:23:13.769Z,11.17
2022-10-28T23:25:42.165Z,11.83
2022-10-28T23:28:10.523Z,11.47
2022-10-28T23:30:38.920Z,11.63
2022-10-28T23:33:07.323Z,12.03
2022-10-28T23:35:35.413Z,11.60
2022-10-28T23:38:03.484Z,11.13
2022-10-28T23:40:33.265Z,12.57
2022-10-28T23:43:01.357Z,12.30
2022-10-28T23:45:29.736Z,11.77
2022-10-28T23:47:57.814Z,12.03
2022-10-28T23:50:26.216Z,11.97
2022-10-28T23:52:56.054Z,12.00
2022-10-28T23:55:24.338Z,12.90
2022-10-28T23:57:54.711Z,12.00
